sensor_id;sensor_type;location;lat;lon;timestamp;P1;durP1;ratioP1;P2;durP2;ratioP2
3491;SDS011;1760;52.480;13.422;2023-02-08T00:01:53;24.73;;;14.27;;
3491;SDS011;1760;52.480;13.422;2023-02-08T00:04:20;35.33;;;17.10;;
3491;SDS011;1760;52.480;13.422;2023-02-08T00:06:47;30.43;;;14.27;;
3491;SDS011;1760;52.480;13.422;2023-02-08T00:09:16;31.50;;;15.63;;
3491;SDS011;1760;52.480;13.422;2023-02-08T00:11:42;25.73;;;12.93;;
3491;SDS011;1760;52.480;13.422;2023-02-08T00:14:11;28.03;;;14.40;;
3491;SDS011;1760;52.480;13.422;2023-02-08T00:16:38;25.20;;;12.90;;
3491;SDS011;1760;52.480;13.422;2023-02-08T00:19:05;24.47;;;14.50;;
3491;SDS011;1760;52.480;13.422;2023-02-08T00:21:32;28.23;;;15.30;;
3491;SDS011;1760;52.480;13.422;2023-02-08T00:23:58;25.77;;;14.13;;
3491;SDS011;1760;52.480;13.422;2023-02-08T00:26:25;30.27;;;14.30;;
3491;SDS011;1760;52.480;13.422;2023-02-08T00:28:54;21.90;;;14.77;;
3491;SDS011;1760;52.480;13.422;2023-02-08T00:31:22;24.33;;;13.47;;
3491;SDS011;1760;52.480;13.422;2023-02-08T00:33:49;27.80;;;13.00;;
3491;SDS011;1760;52.480;13.422;2023-02-08T00:36:16;24.30;;;13.53;;
3491;SDS011;1760;52.480;13.422;2023-02-08T00:38:43;34.70;;;16.00;;
3491;SDS011;1760;52.480;13.422;2023-02-08T00:41:11;29.40;;;14.00;;
3491;SDS011;1760;52.480;13.422;2023-02-08T00:43:40;31.73;;;14.20;;
3491;SDS011;1760;52.480;13.422;2023-02-08T00:46:07;28.67;;;13.70;;
3491;SDS011;1760;52.480;13.422;2023-02-08T00:48:36;20.83;;;13.77;;
3491;SDS011;1760;52.480;13.422;2023-02-08T00:51:03;26.83;;;12.53;;
3491;SDS011;1760;52.480;13.422;2023-02-08T00:53:33;27.57;;;13.00;;
3491;SDS011;1760;52.480;13.422;2023-02-08T00:56:01;18.90;;;12.93;;
3491;SDS011;1760;52.480;13.422;2023-02-08T00:58:31;19.73;;;13.70;;
3491;SDS011;1760;52.480;13.422;2023-02-08T01:00:59;23.47;;;11.80;;
3491;SDS011;1760;52.480;13.422;2023-02-08T01:03:28;21.33;;;13.00;;
3491;SDS011;1760;52.480;13.422;2023-02-08T01:06:00;23.27;;;12.50;;
3491;SDS011;1760;52.480;13.422;2023-02-08T01:08:27;24.67;;;12.60;;
3491;SDS011;1760;52.480;13.422;2023-02-08T01:11:00;35.03;;;13.80;;
3491;SDS011;1760;52.480;13.422;2023-02-08T01:13:28;24.60;;;14.10;;
3491;SDS011;1760;52.480;13.422;2023-02-08T01:16:04;25.97;;;13.50;;
3491;SDS011;1760;52.480;13.422;2023-02-08T01:18:45;27.43;;;13.90;;
3491;SDS011;1760;52.480;13.422;2023-02-08T01:21:18;30.53;;;13.70;;
3491;SDS011;1760;52.480;13.422;2023-02-08T01:23:56;22.03;;;13.30;;
3491;SDS011;1760;52.480;13.422;2023-02-08T01:26:23;17.73;;;12.37;;
3491;SDS011;1760;52.480;13.422;2023-02-08T01:28:51;24.80;;;14.20;;
3491;SDS011;1760;52.480;13.422;2023-02-08T01:31:19;28.90;;;12.07;;
3491;SDS011;1760;52.480;13.422;2023-02-08T01:33:47;24.10;;;12.63;;
3491;SDS011;1760;52.480;13.422;2023-02-08T01:36:18;22.73;;;13.30;;
3491;SDS011;1760;52.480;13.422;2023-02-08T01:38:45;28.50;;;14.17;;
3491;SDS011;1760;52.480;13.422;2023-02-08T01:41:14;26.97;;;16.13;;
3491;SDS011;1760;52.480;13.422;2023-02-08T01:46:58;22.83;;;11.83;;
3491;SDS011;1760;52.480;13.422;2023-02-08T01:49:26;17.30;;;11.07;;
3491;SDS011;1760;52.480;13.422;2023-02-08T01:51:57;18.03;;;12.47;;
3491;SDS011;1760;52.480;13.422;2023-02-08T01:54:27;24.37;;;10.90;;
3491;SDS011;1760;52.480;13.422;2023-02-08T01:56:59;15.30;;;9.53;;
3491;SDS011;1760;52.480;13.422;2023-02-08T01:59:29;29.93;;;12.53;;
3491;SDS011;1760;52.480;13.422;2023-02-08T02:02:00;29.50;;;13.80;;
3491;SDS011;1760;52.480;13.422;2023-02-08T02:04:29;22.50;;;12.67;;
3491;SDS011;1760;52.480;13.422;2023-02-08T02:06:58;23.60;;;14.00;;
3491;SDS011;1760;52.480;13.422;2023-02-08T02:09:27;25.43;;;11.03;;
3491;SDS011;1760;52.480;13.422;2023-02-08T02:12:01;14.80;;;9.67;;
3491;SDS011;1760;52.480;13.422;2023-02-08T02:14:30;19.33;;;10.80;;
3491;SDS011;1760;52.480;13.422;2023-02-08T02:16:58;19.80;;;12.33;;
3491;SDS011;1760;52.480;13.422;2023-02-08T02:19:28;20.57;;;9.37;;
3491;SDS011;1760;52.480;13.422;2023-02-08T02:22:05;21.40;;;10.53;;
3491;SDS011;1760;52.480;13.422;2023-02-08T02:24:47;23.63;;;11.80;;
3491;SDS011;1760;52.480;13.422;2023-02-08T02:27:41;24.37;;;11.20;;
3491;SDS011;1760;52.480;13.422;2023-02-08T02:30:34;22.80;;;14.80;;
3491;SDS011;1760;52.480;13.422;2023-02-08T02:33:28;19.70;;;11.30;;
3491;SDS011;1760;52.480;13.422;2023-02-08T02:36:06;18.90;;;11.63;;
3491;SDS011;1760;52.480;13.422;2023-02-08T02:38:48;19.27;;;10.20;;
3491;SDS011;1760;52.480;13.422;2023-02-08T02:41:29;16.50;;;11.50;;
3491;SDS011;1760;52.480;13.422;2023-02-08T02:44:23;16.10;;;11.20;;
3491;SDS011;1760;52.480;13.422;2023-02-08T02:46:57;18.63;;;11.33;;
3491;SDS011;1760;52.480;13.422;2023-02-08T02:49:31;17.40;;;10.30;;
3491;SDS011;1760;52.480;13.422;2023-02-08T02:52:02;20.70;;;11.80;;
3491;SDS011;1760;52.480;13.422;2023-02-08T02:54:33;19.40;;;10.30;;
3491;SDS011;1760;52.480;13.422;2023-02-08T02:57:09;17.57;;;9.90;;
3491;SDS011;1760;52.480;13.422;2023-02-08T02:59:40;19.93;;;10.30;;
3491;SDS011;1760;52.480;13.422;2023-02-08T03:02:11;15.10;;;9.80;;
3491;SDS011;1760;52.480;13.422;2023-02-08T03:04:50;19.57;;;9.63;;
3491;SDS011;1760;52.480;13.422;2023-02-08T03:07:26;16.03;;;9.70;;
3491;SDS011;1760;52.480;13.422;2023-02-08T03:10:06;22.13;;;12.63;;
3491;SDS011;1760;52.480;13.422;2023-02-08T03:12:48;14.37;;;10.13;;
3491;SDS011;1760;52.480;13.422;2023-02-08T03:15:22;20.10;;;12.47;;
3491;SDS011;1760;52.480;13.422;2023-02-08T03:18:02;16.97;;;9.77;;
3491;SDS011;1760;52.480;13.422;2023-02-08T03:20:39;22.53;;;11.60;;
3491;SDS011;1760;52.480;13.422;2023-02-08T03:23:13;14.97;;;11.50;;
3491;SDS011;1760;52.480;13.422;2023-02-08T03:25:47;19.37;;;9.90;;
3491;SDS011;1760;52.480;13.422;2023-02-08T03:28:18;15.00;;;8.30;;
3491;SDS011;1760;52.480;13.422;2023-02-08T03:30:51;28.00;;;11.10;;
3491;SDS011;1760;52.480;13.422;2023-02-08T03:33:24;23.77;;;11.50;;
3491;SDS011;1760;52.480;13.422;2023-02-08T03:36:00;24.53;;;11.70;;
3491;SDS011;1760;52.480;13.422;2023-02-08T03:38:31;18.40;;;10.30;;
3491;SDS011;1760;52.480;13.422;2023-02-08T03:41:01;16.07;;;8.20;;
3491;SDS011;1760;52.480;13.422;2023-02-08T03:43:33;19.97;;;10.60;;
3491;SDS011;1760;52.480;13.422;2023-02-08T03:46:05;17.50;;;10.83;;
3491;SDS011;1760;52.480;13.422;2023-02-08T03:48:37;23.03;;;9.73;;
3491;SDS011;1760;52.480;13.422;2023-02-08T03:51:09;19.27;;;10.63;;
3491;SDS011;1760;52.480;13.422;2023-02-08T03:53:36;15.07;;;8.07;;
3491;SDS011;1760;52.480;13.422;2023-02-08T03:56:07;10.10;;;7.00;;
3491;SDS011;1760;52.480;13.422;2023-02-08T03:58:40;21.90;;;7.10;;
3491;SDS011;1760;52.480;13.422;2023-02-08T04:01:12;19.13;;;9.07;;
3491;SDS011;1760;52.480;13.422;2023-02-08T04:03:43;15.57;;;11.03;;
3491;SDS011;1760;52.480;13.422;2023-02-08T04:06:15;15.70;;;10.13;;
3491;SDS011;1760;52.480;13.422;2023-02-08T04:08:42;14.73;;;8.17;;
3491;SDS011;1760;52.480;13.422;2023-02-08T04:11:09;15.60;;;8.70;;
3491;SDS011;1760;52.480;13.422;2023-02-08T04:13:36;15.13;;;7.60;;
3491;SDS011;1760;52.480;13.422;2023-02-08T04:16:03;19.07;;;8.63;;
3491;SDS011;1760;52.480;13.422;2023-02-08T04:18:30;15.53;;;8.90;;
3491;SDS011;1760;52.480;13.422;2023-02-08T04:20:57;16.07;;;8.67;;
3491;SDS011;1760;52.480;13.422;2023-02-08T04:23:28;17.67;;;8.40;;
3491;SDS011;1760;52.480;13.422;2023-02-08T04:25:55;20.00;;;9.47;;
3491;SDS011;1760;52.480;13.422;2023-02-08T04:28:22;16.77;;;8.70;;
3491;SDS011;1760;52.480;13.422;2023-02-08T04:30:48;19.60;;;10.53;;
3491;SDS011;1760;52.480;13.422;2023-02-08T04:33:15;20.53;;;8.87;;
3491;SDS011;1760;52.480;13.422;2023-02-08T04:35:42;19.23;;;8.20;;
3491;SDS011;1760;52.480;13.422;2023-02-08T04:38:09;18.70;;;8.97;;
3491;SDS011;1760;52.480;13.422;2023-02-08T04:40:37;23.57;;;9.57;;
3491;SDS011;1760;52.480;13.422;2023-02-08T04:43:04;16.83;;;9.07;;
3491;SDS011;1760;52.480;13.422;2023-02-08T04:45:31;15.30;;;10.47;;
3491;SDS011;1760;52.480;13.422;2023-02-08T04:47:59;14.10;;;7.70;;
3491;SDS011;1760;52.480;13.422;2023-02-08T04:50:26;16.73;;;8.43;;
3491;SDS011;1760;52.480;13.422;2023-02-08T04:52:53;15.93;;;9.33;;
3491;SDS011;1760;52.480;13.422;2023-02-08T04:55:20;13.13;;;9.17;;
3491;SDS011;1760;52.480;13.422;2023-02-08T04:57:48;13.43;;;7.83;;
3491;SDS011;1760;52.480;13.422;2023-02-08T05:00:17;24.83;;;9.60;;
3491;SDS011;1760;52.480;13.422;2023-02-08T05:02:44;14.97;;;9.17;;
3491;SDS011;1760;52.480;13.422;2023-02-08T05:05:11;16.67;;;10.27;;
3491;SDS011;1760;52.480;13.422;2023-02-08T05:07:40;19.70;;;7.53;;
3491;SDS011;1760;52.480;13.422;2023-02-08T05:10:07;23.03;;;11.10;;
3491;SDS011;1760;52.480;13.422;2023-02-08T05:12:37;15.87;;;7.63;;
3491;SDS011;1760;52.480;13.422;2023-02-08T05:15:06;16.80;;;7.33;;
3491;SDS011;1760;52.480;13.422;2023-02-08T05:17:33;17.63;;;8.03;;
3491;SDS011;1760;52.480;13.422;2023-02-08T05:20:00;17.50;;;10.90;;
3491;SDS011;1760;52.480;13.422;2023-02-08T05:22:27;20.33;;;10.70;;
3491;SDS011;1760;52.480;13.422;2023-02-08T05:24:54;14.33;;;8.67;;
3491;SDS011;1760;52.480;13.422;2023-02-08T05:27:21;17.60;;;8.60;;
3491;SDS011;1760;52.480;13.422;2023-02-08T05:29:48;17.13;;;11.90;;
3491;SDS011;1760;52.480;13.422;2023-02-08T05:32:17;18.07;;;9.37;;
3491;SDS011;1760;52.480;13.422;2023-02-08T05:34:45;21.77;;;9.30;;
3491;SDS011;1760;52.480;13.422;2023-02-08T05:37:11;19.30;;;9.37;;
3491;SDS011;1760;52.480;13.422;2023-02-08T05:39:39;18.00;;;8.97;;
3491;SDS011;1760;52.480;13.422;2023-02-08T05:42:06;14.73;;;10.13;;
3491;SDS011;1760;52.480;13.422;2023-02-08T05:44:32;13.13;;;8.47;;
3491;SDS011;1760;52.480;13.422;2023-02-08T05:46:59;14.90;;;9.10;;
3491;SDS011;1760;52.480;13.422;2023-02-08T05:49:29;20.33;;;9.50;;
3491;SDS011;1760;52.480;13.422;2023-02-08T05:51:56;16.37;;;9.00;;
3491;SDS011;1760;52.480;13.422;2023-02-08T05:54:25;24.67;;;12.93;;
3491;SDS011;1760;52.480;13.422;2023-02-08T05:56:51;18.97;;;10.07;;
3491;SDS011;1760;52.480;13.422;2023-02-08T05:59:18;20.03;;;10.13;;
3491;SDS011;1760;52.480;13.422;2023-02-08T06:01:45;21.97;;;13.00;;
3491;SDS011;1760;52.480;13.422;2023-02-08T06:04:12;20.60;;;10.77;;
3491;SDS011;1760;52.480;13.422;2023-02-08T06:06:41;17.00;;;11.70;;
3491;SDS011;1760;52.480;13.422;2023-02-08T06:09:07;26.63;;;11.47;;
3491;SDS011;1760;52.480;13.422;2023-02-08T06:11:36;22.20;;;11.33;;
3491;SDS011;1760;52.480;13.422;2023-02-08T06:14:04;23.00;;;10.60;;
3491;SDS011;1760;52.480;13.422;2023-02-08T06:16:31;22.57;;;11.60;;
3491;SDS011;1760;52.480;13.422;2023-02-08T06:18:58;22.73;;;9.80;;
3491;SDS011;1760;52.480;13.422;2023-02-08T06:21:25;20.73;;;11.47;;
3491;SDS011;1760;52.480;13.422;2023-02-08T06:23:53;12.00;;;9.50;;
3491;SDS011;1760;52.480;13.422;2023-02-08T06:26:20;13.63;;;8.97;;
3491;SDS011;1760;52.480;13.422;2023-02-08T06:28:47;28.03;;;10.60;;
3491;SDS011;1760;52.480;13.422;2023-02-08T06:31:16;22.30;;;10.63;;
3491;SDS011;1760;52.480;13.422;2023-02-08T06:33:43;22.80;;;9.90;;
3491;SDS011;1760;52.480;13.422;2023-02-08T06:36:10;20.17;;;10.50;;
3491;SDS011;1760;52.480;13.422;2023-02-08T06:38:36;20.70;;;10.37;;
3491;SDS011;1760;52.480;13.422;2023-02-08T06:41:05;19.77;;;11.10;;
3491;SDS011;1760;52.480;13.422;2023-02-08T06:43:31;21.37;;;11.07;;
3491;SDS011;1760;52.480;13.422;2023-02-08T06:45:58;13.27;;;9.83;;
3491;SDS011;1760;52.480;13.422;2023-02-08T06:48:28;20.13;;;10.40;;
3491;SDS011;1760;52.480;13.422;2023-02-08T06:50:55;22.33;;;10.07;;
3491;SDS011;1760;52.480;13.422;2023-02-08T06:53:22;18.13;;;11.70;;
3491;SDS011;1760;52.480;13.422;2023-02-08T06:55:49;19.30;;;10.27;;
3491;SDS011;1760;52.480;13.422;2023-02-08T06:58:18;18.87;;;9.90;;
3491;SDS011;1760;52.480;13.422;2023-02-08T07:00:45;20.27;;;11.53;;
3491;SDS011;1760;52.480;13.422;2023-02-08T07:03:12;25.40;;;12.07;;
3491;SDS011;1760;52.480;13.422;2023-02-08T07:05:44;20.50;;;12.53;;
3491;SDS011;1760;52.480;13.422;2023-02-08T07:08:10;19.40;;;9.53;;
3491;SDS011;1760;52.480;13.422;2023-02-08T07:10:37;15.43;;;10.97;;
3491;SDS011;1760;52.480;13.422;2023-02-08T07:13:05;27.00;;;12.20;;
3491;SDS011;1760;52.480;13.422;2023-02-08T07:15:35;19.87;;;10.27;;
3491;SDS011;1760;52.480;13.422;2023-02-08T07:18:02;25.40;;;10.57;;
3491;SDS011;1760;52.480;13.422;2023-02-08T07:20:29;21.20;;;8.67;;
3491;SDS011;1760;52.480;13.422;2023-02-08T07:22:56;15.57;;;10.10;;
3491;SDS011;1760;52.480;13.422;2023-02-08T07:25:24;20.90;;;10.57;;
3491;SDS011;1760;52.480;13.422;2023-02-08T07:27:53;17.00;;;10.57;;
3491;SDS011;1760;52.480;13.422;2023-02-08T07:30:19;32.67;;;11.33;;
3491;SDS011;1760;52.480;13.422;2023-02-08T07:32:54;27.43;;;12.60;;
3491;SDS011;1760;52.480;13.422;2023-02-08T07:35:21;22.60;;;11.40;;
3491;SDS011;1760;52.480;13.422;2023-02-08T07:37:48;22.33;;;12.30;;
3491;SDS011;1760;52.480;13.422;2023-02-08T07:40:15;21.80;;;10.67;;
3491;SDS011;1760;52.480;13.422;2023-02-08T07:42:42;27.40;;;11.20;;
3491;SDS011;1760;52.480;13.422;2023-02-08T07:45:11;21.10;;;11.20;;
3491;SDS011;1760;52.480;13.422;2023-02-08T07:47:37;20.90;;;11.83;;
3491;SDS011;1760;52.480;13.422;2023-02-08T07:50:06;23.93;;;11.20;;
3491;SDS011;1760;52.480;13.422;2023-02-08T07:52:33;20.53;;;9.87;;
3491;SDS011;1760;52.480;13.422;2023-02-08T07:55:00;15.63;;;8.50;;
3491;SDS011;1760;52.480;13.422;2023-02-08T07:57:27;14.10;;;9.27;;
3491;SDS011;1760;52.480;13.422;2023-02-08T07:59:53;22.93;;;11.33;;
3491;SDS011;1760;52.480;13.422;2023-02-08T08:02:20;15.70;;;8.70;;
3491;SDS011;1760;52.480;13.422;2023-02-08T08:04:47;21.90;;;11.80;;
3491;SDS011;1760;52.480;13.422;2023-02-08T08:07:16;20.43;;;12.30;;
3491;SDS011;1760;52.480;13.422;2023-02-08T08:09:43;21.40;;;9.70;;
3491;SDS011;1760;52.480;13.422;2023-02-08T08:12:09;29.17;;;14.80;;
3491;SDS011;1760;52.480;13.422;2023-02-08T08:14:36;15.80;;;9.63;;
3491;SDS011;1760;52.480;13.422;2023-02-08T08:17:03;18.43;;;10.30;;
3491;SDS011;1760;52.480;13.422;2023-02-08T08:19:30;24.53;;;9.90;;
3491;SDS011;1760;52.480;13.422;2023-02-08T08:21:57;17.87;;;10.27;;
3491;SDS011;1760;52.480;13.422;2023-02-08T08:24:25;21.40;;;10.27;;
3491;SDS011;1760;52.480;13.422;2023-02-08T08:26:52;29.80;;;13.20;;
3491;SDS011;1760;52.480;13.422;2023-02-08T08:29:19;19.63;;;12.50;;
3491;SDS011;1760;52.480;13.422;2023-02-08T08:31:47;27.43;;;11.70;;
3491;SDS011;1760;52.480;13.422;2023-02-08T08:34:14;19.43;;;10.70;;
3491;SDS011;1760;52.480;13.422;2023-02-08T08:36:42;20.87;;;10.47;;
3491;SDS011;1760;52.480;13.422;2023-02-08T08:39:10;23.70;;;11.53;;
3491;SDS011;1760;52.480;13.422;2023-02-08T08:41:38;21.10;;;10.17;;
3491;SDS011;1760;52.480;13.422;2023-02-08T08:44:05;24.17;;;11.07;;
3491;SDS011;1760;52.480;13.422;2023-02-08T08:46:31;24.80;;;14.93;;
3491;SDS011;1760;52.480;13.422;2023-02-08T08:48:58;23.20;;;12.53;;
3491;SDS011;1760;52.480;13.422;2023-02-08T08:51:25;20.70;;;11.17;;
3491;SDS011;1760;52.480;13.422;2023-02-08T08:53:52;29.30;;;12.77;;
3491;SDS011;1760;52.480;13.422;2023-02-08T08:56:19;27.90;;;13.27;;
3491;SDS011;1760;52.480;13.422;2023-02-08T08:58:47;26.67;;;13.47;;
3491;SDS011;1760;52.480;13.422;2023-02-08T09:01:14;23.07;;;12.83;;
3491;SDS011;1760;52.480;13.422;2023-02-08T09:03:44;22.77;;;12.70;;
3491;SDS011;1760;52.480;13.422;2023-02-08T09:06:10;21.53;;;11.80;;
3491;SDS011;1760;52.480;13.422;2023-02-08T09:08:43;24.10;;;12.13;;
3491;SDS011;1760;52.480;13.422;2023-02-08T09:11:11;22.67;;;14.27;;
3491;SDS011;1760;52.480;13.422;2023-02-08T09:13:39;29.07;;;14.83;;
3491;SDS011;1760;52.480;13.422;2023-02-08T09:16:09;34.73;;;14.37;;
3491;SDS011;1760;52.480;13.422;2023-02-08T09:18:37;27.83;;;15.77;;
3491;SDS011;1760;52.480;13.422;2023-02-08T09:21:05;30.47;;;15.40;;
3491;SDS011;1760;52.480;13.422;2023-02-08T09:23:32;25.77;;;13.10;;
3491;SDS011;1760;52.480;13.422;2023-02-08T09:26:00;27.20;;;15.67;;
3491;SDS011;1760;52.480;13.422;2023-02-08T09:28:27;30.63;;;13.23;;
3491;SDS011;1760;52.480;13.422;2023-02-08T09:30:54;24.30;;;13.97;;
3491;SDS011;1760;52.480;13.422;2023-02-08T09:33:23;28.23;;;14.20;;
3491;SDS011;1760;52.480;13.422;2023-02-08T09:35:49;29.83;;;14.67;;
3491;SDS011;1760;52.480;13.422;2023-02-08T09:38:16;31.03;;;14.80;;
3491;SDS011;1760;52.480;13.422;2023-02-08T09:40:48;21.00;;;12.27;;
3491;SDS011;1760;52.480;13.422;2023-02-08T09:43:29;25.33;;;14.60;;
3491;SDS011;1760;52.480;13.422;2023-02-08T09:46:01;31.90;;;14.70;;
3491;SDS011;1760;52.480;13.422;2023-02-08T09:48:35;27.87;;;16.67;;
3491;SDS011;1760;52.480;13.422;2023-02-08T09:51:14;27.50;;;15.80;;
3491;SDS011;1760;52.480;13.422;2023-02-08T09:53:50;30.57;;;16.43;;
3491;SDS011;1760;52.480;13.422;2023-02-08T09:56:24;21.97;;;13.10;;
3491;SDS011;1760;52.480;13.422;2023-02-08T09:58:54;33.03;;;17.20;;
3491;SDS011;1760;52.480;13.422;2023-02-08T10:01:23;32.30;;;13.80;;
3491;SDS011;1760;52.480;13.422;2023-02-08T10:03:54;34.57;;;16.20;;
3491;SDS011;1760;52.480;13.422;2023-02-08T10:06:24;39.17;;;18.60;;
3491;SDS011;1760;52.480;13.422;2023-02-08T10:08:51;40.75;;;20.33;;
3491;SDS011;1760;52.480;13.422;2023-02-08T10:11:24;34.00;;;19.63;;
3491;SDS011;1760;52.480;13.422;2023-02-08T10:14:07;27.10;;;16.90;;
3491;SDS011;1760;52.480;13.422;2023-02-08T10:16:50;34.33;;;18.30;;
3491;SDS011;1760;52.480;13.422;2023-02-08T10:19:34;31.20;;;16.83;;
3491;SDS011;1760;52.480;13.422;2023-02-08T10:22:14;29.20;;;16.23;;
3491;SDS011;1760;52.480;13.422;2023-02-08T10:24:59;26.40;;;15.40;;
3491;SDS011;1760;52.480;13.422;2023-02-08T10:27:42;35.13;;;17.50;;
3491;SDS011;1760;52.480;13.422;2023-02-08T10:30:27;32.37;;;19.27;;
3491;SDS011;1760;52.480;13.422;2023-02-08T10:32:59;32.10;;;17.50;;
3491;SDS011;1760;52.480;13.422;2023-02-08T10:35:34;35.83;;;18.97;;
3491;SDS011;1760;52.480;13.422;2023-02-08T10:38:17;26.40;;;15.63;;
3491;SDS011;1760;52.480;13.422;2023-02-08T10:40:50;25.30;;;15.93;;
3491;SDS011;1760;52.480;13.422;2023-02-08T10:43:23;33.13;;;16.63;;
3491;SDS011;1760;52.480;13.422;2023-02-08T10:45:57;32.60;;;18.07;;
3491;SDS011;1760;52.480;13.422;2023-02-08T10:48:34;32.83;;;17.10;;
3491;SDS011;1760;52.480;13.422;2023-02-08T10:51:10;29.87;;;16.53;;
3491;SDS011;1760;52.480;13.422;2023-02-08T10:53:38;30.60;;;16.57;;
3491;SDS011;1760;52.480;13.422;2023-02-08T10:56:05;34.63;;;16.20;;
3491;SDS011;1760;52.480;13.422;2023-02-08T10:58:37;28.53;;;14.60;;
3491;SDS011;1760;52.480;13.422;2023-02-08T11:01:04;27.17;;;16.80;;
3491;SDS011;1760;52.480;13.422;2023-02-08T11:03:34;35.13;;;16.87;;
3491;SDS011;1760;52.480;13.422;2023-02-08T11:06:03;29.33;;;16.47;;
3491;SDS011;1760;52.480;13.422;2023-02-08T11:08:32;27.97;;;14.87;;
3491;SDS011;1760;52.480;13.422;2023-02-08T11:11:18;38.47;;;17.20;;
3491;SDS011;1760;52.480;13.422;2023-02-08T11:13:46;30.10;;;17.20;;
3491;SDS011;1760;52.480;13.422;2023-02-08T11:16:19;29.93;;;16.23;;
3491;SDS011;1760;52.480;13.422;2023-02-08T11:18:47;27.53;;;15.97;;
3491;SDS011;1760;52.480;13.422;2023-02-08T11:21:21;32.00;;;15.50;;
3491;SDS011;1760;52.480;13.422;2023-02-08T11:23:52;32.00;;;16.23;;
3491;SDS011;1760;52.480;13.422;2023-02-08T11:26:21;32.63;;;18.87;;
3491;SDS011;1760;52.480;13.422;2023-02-08T11:28:59;30.87;;;16.20;;
3491;SDS011;1760;52.480;13.422;2023-02-08T11:31:28;33.90;;;17.10;;
3491;SDS011;1760;52.480;13.422;2023-02-08T11:34:00;27.10;;;13.13;;
3491;SDS011;1760;52.480;13.422;2023-02-08T11:36:28;29.10;;;13.70;;
3491;SDS011;1760;52.480;13.422;2023-02-08T11:39:01;33.83;;;16.70;;
3491;SDS011;1760;52.480;13.422;2023-02-08T11:41:29;32.80;;;17.17;;
3491;SDS011;1760;52.480;13.422;2023-02-08T11:43:57;33.77;;;15.83;;
3491;SDS011;1760;52.480;13.422;2023-02-08T11:46:28;26.10;;;15.20;;
3491;SDS011;1760;52.480;13.422;2023-02-08T11:48:58;28.73;;;15.90;;
3491;SDS011;1760;52.480;13.422;2023-02-08T11:51:28;37.10;;;16.20;;
3491;SDS011;1760;52.480;13.422;2023-02-08T11:53:58;31.10;;;15.20;;
3491;SDS011;1760;52.480;13.422;2023-02-08T11:56:27;29.10;;;14.40;;
3491;SDS011;1760;52.480;13.422;2023-02-08T11:58:56;25.10;;;13.70;;
3491;SDS011;1760;52.480;13.422;2023-02-08T12:01:26;31.03;;;16.40;;
3491;SDS011;1760;52.480;13.422;2023-02-08T12:03:55;33.97;;;15.50;;
3491;SDS011;1760;52.480;13.422;2023-02-08T12:06:32;37.17;;;18.20;;
3491;SDS011;1760;52.480;13.422;2023-02-08T12:09:22;31.07;;;17.03;;
3491;SDS011;1760;52.480;13.422;2023-02-08T12:12:03;33.93;;;14.67;;
3491;SDS011;1760;52.480;13.422;2023-02-08T12:14:45;24.30;;;12.87;;
3491;SDS011;1760;52.480;13.422;2023-02-08T12:17:27;32.20;;;16.40;;
3491;SDS011;1760;52.480;13.422;2023-02-08T12:20:16;24.47;;;13.33;;
3491;SDS011;1760;52.480;13.422;2023-02-08T12:23:01;30.27;;;15.53;;
3491;SDS011;1760;52.480;13.422;2023-02-08T12:25:53;29.37;;;15.37;;
3491;SDS011;1760;52.480;13.422;2023-02-08T12:28:31;23.23;;;13.43;;
3491;SDS011;1760;52.480;13.422;2023-02-08T12:31:12;30.33;;;14.90;;
3491;SDS011;1760;52.480;13.422;2023-02-08T12:33:49;26.90;;;14.50;;
3491;SDS011;1760;52.480;13.422;2023-02-08T12:36:30;26.63;;;14.90;;
3491;SDS011;1760;52.480;13.422;2023-02-08T12:39:05;29.10;;;13.73;;
3491;SDS011;1760;52.480;13.422;2023-02-08T12:42:14;28.17;;;15.30;;
3491;SDS011;1760;52.480;13.422;2023-02-08T12:45:08;28.63;;;15.63;;
3491;SDS011;1760;52.480;13.422;2023-02-08T12:48:01;36.00;;;15.33;;
3491;SDS011;1760;52.480;13.422;2023-02-08T12:50:39;26.23;;;13.47;;
3491;SDS011;1760;52.480;13.422;2023-02-08T12:53:16;31.10;;;13.83;;
3491;SDS011;1760;52.480;13.422;2023-02-08T12:55:49;26.63;;;15.10;;
3491;SDS011;1760;52.480;13.422;2023-02-08T12:58:25;24.37;;;14.47;;
3491;SDS011;1760;52.480;13.422;2023-02-08T13:00:56;30.67;;;16.30;;
3491;SDS011;1760;52.480;13.422;2023-02-08T13:03:30;31.93;;;16.43;;
3491;SDS011;1760;52.480;13.422;2023-02-08T13:06:02;27.30;;;13.03;;
3491;SDS011;1760;52.480;13.422;2023-02-08T13:08:40;27.67;;;15.13;;
3491;SDS011;1760;52.480;13.422;2023-02-08T13:11:13;28.77;;;14.10;;
3491;SDS011;1760;52.480;13.422;2023-02-08T13:13:42;22.20;;;13.27;;
3491;SDS011;1760;52.480;13.422;2023-02-08T13:16:15;27.23;;;14.87;;
3491;SDS011;1760;52.480;13.422;2023-02-08T13:18:46;24.53;;;14.90;;
3491;SDS011;1760;52.480;13.422;2023-02-08T13:21:19;28.57;;;12.70;;
3491;SDS011;1760;52.480;13.422;2023-02-08T13:23:50;26.00;;;14.50;;
3491;SDS011;1760;52.480;13.422;2023-02-08T13:26:18;26.63;;;12.70;;
3491;SDS011;1760;52.480;13.422;2023-02-08T13:28:51;29.40;;;13.80;;
3491;SDS011;1760;52.480;13.422;2023-02-08T13:31:23;30.37;;;14.20;;
3491;SDS011;1760;52.480;13.422;2023-02-08T13:33:52;40.73;;;15.30;;
3491;SDS011;1760;52.480;13.422;2023-02-08T13:36:25;24.90;;;13.53;;
3491;SDS011;1760;52.480;13.422;2023-02-08T13:38:55;22.53;;;14.30;;
3491;SDS011;1760;52.480;13.422;2023-02-08T13:41:24;29.77;;;14.53;;
3491;SDS011;1760;52.480;13.422;2023-02-08T13:43:53;24.40;;;14.23;;
3491;SDS011;1760;52.480;13.422;2023-02-08T13:46:27;24.80;;;12.10;;
3491;SDS011;1760;52.480;13.422;2023-02-08T13:49:04;41.90;;;17.50;;
3491;SDS011;1760;52.480;13.422;2023-02-08T13:54:22;29.10;;;12.93;;
3491;SDS011;1760;52.480;13.422;2023-02-08T13:56:50;28.00;;;15.17;;
3491;SDS011;1760;52.480;13.422;2023-02-08T13:59:23;27.97;;;14.03;;
3491;SDS011;1760;52.480;13.422;2023-02-08T14:07:59;28.77;;;15.80;;
3491;SDS011;1760;52.480;13.422;2023-02-08T14:10:32;30.97;;;14.40;;
3491;SDS011;1760;52.480;13.422;2023-02-08T14:13:18;23.53;;;12.60;;
3491;SDS011;1760;52.480;13.422;2023-02-08T14:18:56;28.30;;;15.43;;
3491;SDS011;1760;52.480;13.422;2023-02-08T14:21:29;25.23;;;15.00;;
3491;SDS011;1760;52.480;13.422;2023-02-08T14:23:59;33.47;;;14.87;;
3491;SDS011;1760;52.480;13.422;2023-02-08T14:26:29;25.10;;;13.90;;
3491;SDS011;1760;52.480;13.422;2023-02-08T14:28:56;31.93;;;15.60;;
3491;SDS011;1760;52.480;13.422;2023-02-08T14:31:34;23.77;;;14.83;;
3491;SDS011;1760;52.480;13.422;2023-02-08T14:34:14;24.37;;;13.97;;
3491;SDS011;1760;52.480;13.422;2023-02-08T14:36:52;28.30;;;12.40;;
3491;SDS011;1760;52.480;13.422;2023-02-08T14:39:25;28.83;;;15.00;;
3491;SDS011;1760;52.480;13.422;2023-02-08T14:41:54;31.73;;;14.40;;
3491;SDS011;1760;52.480;13.422;2023-02-08T14:44:43;28.90;;;15.07;;
3491;SDS011;1760;52.480;13.422;2023-02-08T14:47:13;38.33;;;13.30;;
3491;SDS011;1760;52.480;13.422;2023-02-08T14:50:27;20.43;;;11.50;;
3491;SDS011;1760;52.480;13.422;2023-02-08T14:53:02;28.07;;;13.33;;
3491;SDS011;1760;52.480;13.422;2023-02-08T14:55:33;24.40;;;13.57;;
3491;SDS011;1760;52.480;13.422;2023-02-08T14:58:05;26.67;;;15.67;;
3491;SDS011;1760;52.480;13.422;2023-02-08T15:00:34;29.77;;;14.53;;
3491;SDS011;1760;52.480;13.422;2023-02-08T15:03:04;37.20;;;18.37;;
3491;SDS011;1760;52.480;13.422;2023-02-08T15:05:40;30.93;;;14.20;;
3491;SDS011;1760;52.480;13.422;2023-02-08T15:08:20;26.27;;;13.60;;
3491;SDS011;1760;52.480;13.422;2023-02-08T15:10:47;32.10;;;15.57;;
3491;SDS011;1760;52.480;13.422;2023-02-08T15:13:16;28.30;;;13.23;;
3491;SDS011;1760;52.480;13.422;2023-02-08T15:15:45;30.83;;;15.47;;